sensor_id;sensor_type;location;lat;lon;timestamp;temperature;humidity
18073;DHT22;9161;47.348;9.648;2023-07-20T00:03:32;21.80;99.90
18073;DHT22;9161;47.348;9.648;2023-07-20T00:08:35;21.60;99.90
18073;DHT22;9161;47.348;9.648;2023-07-20T00:13:38;21.60;99.90
18073;DHT22;9161;47.348;9.648;2023-07-20T00:18:45;21.50;99.90
18073;DHT22;9161;47.348;9.648;2023-07-20T00:23:47;21.40;99.90
18073;DHT22;9161;47.348;9.648;2023-07-20T00:28:50;21.40;99.90
18073;DHT22;9161;47.348;9.648;2023-07-20T00:33:54;21.30;99.90
18073;DHT22;9161;47.348;9.648;2023-07-20T00:38:56;21.20;99.90
18073;DHT22;9161;47.348;9.648;2023-07-20T00:43:59;21.10;99.90
18073;DHT22;9161;47.348;9.648;2023-07-20T00:49:02;21.00;99.90
18073;DHT22;9161;47.348;9.648;2023-07-20T00:54:05;20.90;99.90
18073;DHT22;9161;47.348;9.648;2023-07-20T00:59:07;20.80;99.90
18073;DHT22;9161;47.348;9.648;2023-07-20T01:04:11;20.70;99.90
18073;DHT22;9161;47.348;9.648;2023-07-20T01:09:17;20.80;99.90
18073;DHT22;9161;47.348;9.648;2023-07-20T01:14:20;20.70;99.90
18073;DHT22;9161;47.348;9.648;2023-07-20T01:19:25;20.80;99.90
18073;DHT22;9161;47.348;9.648;2023-07-20T01:24:50;20.80;99.90
18073;DHT22;9161;47.348;9.648;2023-07-20T01:30:16;20.80;99.90
18073;DHT22;9161;47.348;9.648;2023-07-20T01:35:29;20.80;99.90
18073;DHT22;9161;47.348;9.648;2023-07-20T01:40:31;20.80;99.90
18073;DHT22;9161;47.348;9.648;2023-07-20T01:45:33;20.70;99.90
18073;DHT22;9161;47.348;9.648;2023-07-20T01:50:37;20.70;99.90
18073;DHT22;9161;47.348;9.648;2023-07-20T01:55:39;20.70;99.90
18073;DHT22;9161;47.348;9.648;2023-07-20T02:00:41;20.70;99.90
18073;DHT22;9161;47.348;9.648;2023-07-20T02:05:45;20.70;99.90
18073;DHT22;9161;47.348;9.648;2023-07-20T02:10:47;20.70;99.90
18073;DHT22;9161;47.348;9.648;2023-07-20T02:15:49;20.80;99.90
18073;DHT22;9161;47.348;9.648;2023-07-20T02:20:54;20.80;99.90
18073;DHT22;9161;47.348;9.648;2023-07-20T02:25:56;20.80;99.90
18073;DHT22;9161;47.348;9.648;2023-07-20T02:30:58;20.80;99.90
18073;DHT22;9161;47.348;9.648;2023-07-20T02:36:02;20.80;99.90
18073;DHT22;9161;47.348;9.648;2023-07-20T02:41:04;20.80;99.90
18073;DHT22;9161;47.348;9.648;2023-07-20T02:46:07;20.80;99.90
18073;DHT22;9161;47.348;9.648;2023-07-20T02:51:10;20.70;99.90
18073;DHT22;9161;47.348;9.648;2023-07-20T02:56:13;20.70;99.90
18073;DHT22;9161;47.348;9.648;2023-07-20T03:01:16;20.60;99.90
18073;DHT22;9161;47.348;9.648;2023-07-20T03:06:19;20.60;99.90
18073;DHT22;9161;47.348;9.648;2023-07-20T03:11:22;20.60;99.90
18073;DHT22;9161;47.348;9.648;2023-07-20T03:16:24;20.50;99.90
18073;DHT22;9161;47.348;9.648;2023-07-20T03:21:29;20.60;99.90
18073;DHT22;9161;47.348;9.648;2023-07-20T03:26:31;20.70;99.90
18073;DHT22;9161;47.348;9.648;2023-07-20T03:31:34;20.80;99.90
18073;DHT22;9161;47.348;9.648;2023-07-20T03:36:37;20.70;99.90
18073;DHT22;9161;47.348;9.648;2023-07-20T03:41:40;20.70;99.90
18073;DHT22;9161;47.348;9.648;2023-07-20T03:46:44;20.70;99.90
18073;DHT22;9161;47.348;9.648;2023-07-20T03:51:48;20.50;99.90
18073;DHT22;9161;47.348;9.648;2023-07-20T03:56:50;20.50;99.90
18073;DHT22;9161;47.348;9.648;2023-07-20T04:01:52;20.40;99.90
18073;DHT22;9161;47.348;9.648;2023-07-20T04:06:56;20.30;99.90
18073;DHT22;9161;47.348;9.648;2023-07-20T04:11:58;20.30;99.90
18073;DHT22;9161;47.348;9.648;2023-07-20T04:17:00;20.20;99.90
18073;DHT22;9161;47.348;9.648;2023-07-20T04:22:04;20.10;99.90
18073;DHT22;9161;47.348;9.648;2023-07-20T04:27:06;20.10;99.90
18073;DHT22;9161;47.348;9.648;2023-07-20T04:32:09;20.10;99.90
18073;DHT22;9161;47.348;9.648;2023-07-20T04:37:12;20.10;99.90
18073;DHT22;9161;47.348;9.648;2023-07-20T04:42:15;20.00;99.90
18073;DHT22;9161;47.348;9.648;2023-07-20T04:47:18;20.00;99.90
18073;DHT22;9161;47.348;9.648;2023-07-20T04:52:22;20.00;99.90
18073;DHT22;9161;47.348;9.648;2023-07-20T04:57:41;20.00;99.90
18073;DHT22;9161;47.348;9.648;2023-07-20T05:02:44;20.10;99.90
18073;DHT22;9161;47.348;9.648;2023-07-20T05:07:59;20.20;99.90
18073;DHT22;9161;47.348;9.648;2023-07-20T05:13:01;20.20;99.90
18073;DHT22;9161;47.348;9.648;2023-07-20T05:18:04;20.10;99.90
18073;DHT22;9161;47.348;9.648;2023-07-20T05:23:07;20.00;99.90
18073;DHT22;9161;47.348;9.648;2023-07-20T05:28:10;20.10;99.90
18073;DHT22;9161;47.348;9.648;2023-07-20T05:33:12;20.10;99.90
18073;DHT22;9161;47.348;9.648;2023-07-20T05:38:15;20.10;99.90
18073;DHT22;9161;47.348;9.648;2023-07-20T05:43:18;20.00;99.90
18073;DHT22;9161;47.348;9.648;2023-07-20T05:48:23;20.10;99.90
18073;DHT22;9161;47.348;9.648;2023-07-20T05:53:27;20.00;99.90
18073;DHT22;9161;47.348;9.648;2023-07-20T05:58:29;20.00;99.90
18073;DHT22;9161;47.348;9.648;2023-07-20T06:03:32;19.90;99.90
18073;DHT22;9161;47.348;9.648;2023-07-20T06:08:37;20.00;99.90
18073;DHT22;9161;47.348;9.648;2023-07-20T06:13:39;20.40;99.90
18073;DHT22;9161;47.348;9.648;2023-07-20T06:18:47;20.70;99.90
18073;DHT22;9161;47.348;9.648;2023-07-20T06:23:55;20.80;99.90
18073;DHT22;9161;47.348;9.648;2023-07-20T06:28:58;20.90;99.90
18073;DHT22;9161;47.348;9.648;2023-07-20T06:34:00;20.90;99.90
18073;DHT22;9161;47.348;9.648;2023-07-20T06:39:05;20.80;99.90
18073;DHT22;9161;47.348;9.648;2023-07-20T06:44:10;20.80;99.90
18073;DHT22;9161;47.348;9.648;2023-07-20T06:49:24;20.80;99.90
18073;DHT22;9161;47.348;9.648;2023-07-20T06:54:28;21.00;99.90
18073;DHT22;9161;47.348;9.648;2023-07-20T06:59:35;21.10;99.90
18073;DHT22;9161;47.348;9.648;2023-07-20T07:04:41;21.30;99.90
18073;DHT22;9161;47.348;9.648;2023-07-20T07:09:45;21.90;99.90
18073;DHT22;9161;47.348;9.648;2023-07-20T07:14:48;22.20;99.90
18073;DHT22;9161;47.348;9.648;2023-07-20T07:19:51;22.20;99.90
18073;DHT22;9161;47.348;9.648;2023-07-20T07:24:56;22.30;99.90
18073;DHT22;9161;47.348;9.648;2023-07-20T07:29:58;22.40;99.90
18073;DHT22;9161;47.348;9.648;2023-07-20T07:35:00;23.10;99.90
18073;DHT22;9161;47.348;9.648;2023-07-20T07:40:06;24.00;99.90
18073;DHT22;9161;47.348;9.648;2023-07-20T07:45:10;24.60;99.90
18073;DHT22;9161;47.348;9.648;2023-07-20T07:50:13;25.20;99.90
18073;DHT22;9161;47.348;9.648;2023-07-20T07:55:17;24.70;99.90
18073;DHT22;9161;47.348;9.648;2023-07-20T08:00:19;24.40;99.90
18073;DHT22;9161;47.348;9.648;2023-07-20T08:05:22;24.70;99.90
18073;DHT22;9161;47.348;9.648;2023-07-20T08:10:28;24.50;99.90
18073;DHT22;9161;47.348;9.648;2023-07-20T08:15:30;25.10;99.90
18073;DHT22;9161;47.348;9.648;2023-07-20T08:20:33;25.80;99.90
18073;DHT22;9161;47.348;9.648;2023-07-20T08:25:38;25.30;99.90
18073;DHT22;9161;47.348;9.648;2023-07-20T08:30:44;24.60;99.90
18073;DHT22;9161;47.348;9.648;2023-07-20T08:35:47;25.10;99.90
18073;DHT22;9161;47.348;9.648;2023-07-20T08:40:51;26.00;99.90
18073;DHT22;9161;47.348;9.648;2023-07-20T08:45:55;26.10;99.90
18073;DHT22;9161;47.348;9.648;2023-07-20T08:50:58;26.80;99.90
18073;DHT22;9161;47.348;9.648;2023-07-20T08:56:03;27.20;99.90
18073;DHT22;9161;47.348;9.648;2023-07-20T09:01:06;26.90;99.90
18073;DHT22;9161;47.348;9.648;2023-07-20T09:06:12;27.30;99.90
18073;DHT22;9161;47.348;9.648;2023-07-20T09:11:17;27.50;99.90
18073;DHT22;9161;47.348;9.648;2023-07-20T09:16:19;27.50;99.90
18073;DHT22;9161;47.348;9.648;2023-07-20T09:21:23;27.30;99.90
18073;DHT22;9161;47.348;9.648;2023-07-20T09:26:27;27.70;99.90
18073;DHT22;9161;47.348;9.648;2023-07-20T09:31:29;27.80;99.90
18073;DHT22;9161;47.348;9.648;2023-07-20T09:36:38;28.20;99.90
18073;DHT22;9161;47.348;9.648;2023-07-20T09:41:44;27.80;99.90
18073;DHT22;9161;47.348;9.648;2023-07-20T09:46:47;27.60;99.90
18073;DHT22;9161;47.348;9.648;2023-07-20T09:51:54;28.20;99.90
18073;DHT22;9161;47.348;9.648;2023-07-20T09:56:58;28.20;99.90
18073;DHT22;9161;47.348;9.648;2023-07-20T10:02:03;27.90;99.90
18073;DHT22;9161;47.348;9.648;2023-07-20T10:07:10;28.20;99.90
18073;DHT22;9161;47.348;9.648;2023-07-20T10:12:15;28.80;99.90
18073;DHT22;9161;47.348;9.648;2023-07-20T10:17:17;28.70;99.90
18073;DHT22;9161;47.348;9.648;2023-07-20T10:22:25;28.10;99.90
18073;DHT22;9161;47.348;9.648;2023-07-20T10:27:29;29.20;99.90
18073;DHT22;9161;47.348;9.648;2023-07-20T10:32:34;29.20;99.90
18073;DHT22;9161;47.348;9.648;2023-07-20T10:37:52;29.70;99.90
18073;DHT22;9161;47.348;9.648;2023-07-20T10:43:02;30.30;99.90
18073;DHT22;9161;47.348;9.648;2023-07-20T10:48:05;30.00;99.90
18073;DHT22;9161;47.348;9.648;2023-07-20T10:53:12;29.50;99.90
18073;DHT22;9161;47.348;9.648;2023-07-20T10:58:15;29.70;99.80
18073;DHT22;9161;47.348;9.648;2023-07-20T11:03:27;29.40;99.90
18073;DHT22;9161;47.348;9.648;2023-07-20T11:08:41;29.30;99.90
18073;DHT22;9161;47.348;9.648;2023-07-20T11:13:56;29.50;99.90
18073;DHT22;9161;47.348;9.648;2023-07-20T11:19:00;29.50;99.90
18073;DHT22;9161;47.348;9.648;2023-07-20T11:24:04;29.00;99.90
18073;DHT22;9161;47.348;9.648;2023-07-20T11:29:07;29.10;99.90
18073;DHT22;9161;47.348;9.648;2023-07-20T11:34:33;29.70;99.90
18073;DHT22;9161;47.348;9.648;2023-07-20T11:39:36;30.60;99.90
18073;DHT22;9161;47.348;9.648;2023-07-20T11:44:40;30.40;99.90
18073;DHT22;9161;47.348;9.648;2023-07-20T11:49:43;30.00;99.60
18073;DHT22;9161;47.348;9.648;2023-07-20T11:54:47;30.50;99.30
18073;DHT22;9161;47.348;9.648;2023-07-20T11:59:55;30.00;99.90
18073;DHT22;9161;47.348;9.648;2023-07-20T12:05:01;30.00;97.10
18073;DHT22;9161;47.348;9.648;2023-07-20T12:10:06;30.00;99.60
18073;DHT22;9161;47.348;9.648;2023-07-20T12:15:20;30.70;96.40
18073;DHT22;9161;47.348;9.648;2023-07-20T12:20:27;31.20;97.50
18073;DHT22;9161;47.348;9.648;2023-07-20T12:25:36;31.50;98.90
18073;DHT22;9161;47.348;9.648;2023-07-20T12:30:47;31.30;98.80
18073;DHT22;9161;47.348;9.648;2023-07-20T12:35:57;31.70;98.30
18073;DHT22;9161;47.348;9.648;2023-07-20T12:41:01;31.10;97.80
18073;DHT22;9161;47.348;9.648;2023-07-20T12:46:05;31.10;97.50
18073;DHT22;9161;47.348;9.648;2023-07-20T12:51:08;31.00;98.10
18073;DHT22;9161;47.348;9.648;2023-07-20T12:56:11;30.90;98.50
18073;DHT22;9161;47.348;9.648;2023-07-20T13:01:18;31.20;96.50
18073;DHT22;9161;47.348;9.648;2023-07-20T13:06:20;31.60;96.90
18073;DHT22;9161;47.348;9.648;2023-07-20T13:11:26;32.00;98.60
18073;DHT22;9161;47.348;9.648;2023-07-20T13:16:31;32.00;98.80
18073;DHT22;9161;47.348;9.648;2023-07-20T13:21:35;32.10;97.20
18073;DHT22;9161;47.348;9.648;2023-07-20T13:26:37;32.90;96.90
18073;DHT22;9161;47.348;9.648;2023-07-20T13:31:40;33.40;92.60
18073;DHT22;9161;47.348;9.648;2023-07-20T13:36:43;33.30;96.90
18073;DHT22;9161;47.348;9.648;2023-07-20T13:41:45;33.80;97.00
18073;DHT22;9161;47.348;9.648;2023-07-20T13:46:50;33.30;95.10
18073;DHT22;9161;47.348;9.648;2023-07-20T13:51:53;33.30;95.30
18073;DHT22;9161;47.348;9.648;2023-07-20T13:56:58;32.80;95.90
18073;DHT22;9161;47.348;9.648;2023-07-20T14:02:06;33.50;95.50
18073;DHT22;9161;47.348;9.648;2023-07-20T14:07:11;33.10;93.10
18073;DHT22;9161;47.348;9.648;2023-07-20T14:12:17;32.40;95.80
18073;DHT22;9161;47.348;9.648;2023-07-20T14:17:21;32.10;92.80
18073;DHT22;9161;47.348;9.648;2023-07-20T14:22:23;32.90;93.10
18073;DHT22;9161;47.348;9.648;2023-07-20T14:27:32;33.30;92.60
18073;DHT22;9161;47.348;9.648;2023-07-20T14:32:40;33.30;94.70
18073;DHT22;9161;47.348;9.648;2023-07-20T14:37:42;33.20;93.00
18073;DHT22;9161;47.348;9.648;2023-07-20T14:42:48;32.70;92.20
18073;DHT22;9161;47.348;9.648;2023-07-20T14:47:53;32.50;93.70
18073;DHT22;9161;47.348;9.648;2023-07-20T14:52:55;31.50;95.20
18073;DHT22;9161;47.348;9.648;2023-07-20T14:57:58;31.90;94.70
18073;DHT22;9161;47.348;9.648;2023-07-20T15:03:01;32.20;94.80
18073;DHT22;9161;47.348;9.648;2023-07-20T15:08:04;32.30;93.50
18073;DHT22;9161;47.348;9.648;2023-07-20T15:13:09;31.50;94.10
18073;DHT22;9161;47.348;9.648;2023-07-20T15:18:12;31.40;94.20
18073;DHT22;9161;47.348;9.648;2023-07-20T15:23:15;31.10;95.00
18073;DHT22;9161;47.348;9.648;2023-07-20T15:28:17;30.40;94.20
18073;DHT22;9161;47.348;9.648;2023-07-20T15:33:21;30.50;95.00
18073;DHT22;9161;47.348;9.648;2023-07-20T15:38:28;31.10;95.50
18073;DHT22;9161;47.348;9.648;2023-07-20T15:43:33;31.10;94.50
18073;DHT22;9161;47.348;9.648;2023-07-20T15:48:36;30.20;95.40
18073;DHT22;9161;47.348;9.648;2023-07-20T15:53:42;30.00;95.80
18073;DHT22;9161;47.348;9.648;2023-07-20T15:58:44;29.90;95.80
18073;DHT22;9161;47.348;9.648;2023-07-20T16:03:48;29.60;96.00
18073;DHT22;9161;47.348;9.648;2023-07-20T16:08:51;29.80;95.00
18073;DHT22;9161;47.348;9.648;2023-07-20T16:14:00;29.20;95.40
18073;DHT22;9161;47.348;9.648;2023-07-20T16:19:04;28.70;94.90
18073;DHT22;9161;47.348;9.648;2023-07-20T16:24:09;28.80;94.00
18073;DHT22;9161;47.348;9.648;2023-07-20T16:29:12;28.50;96.90
18073;DHT22;9161;47.348;9.648;2023-07-20T16:34:21;28.50;95.20
18073;DHT22;9161;47.348;9.648;2023-07-20T16:39:24;28.80;96.10
18073;DHT22;9161;47.348;9.648;2023-07-20T16:44:27;29.00;95.10
18073;DHT22;9161;47.348;9.648;2023-07-20T16:49:31;28.90;95.00
18073;DHT22;9161;47.348;9.648;2023-07-20T16:54:35;28.60;94.50
18073;DHT22;9161;47.348;9.648;2023-07-20T16:59:37;28.20;94.80
18073;DHT22;9161;47.348;9.648;2023-07-20T17:04:41;27.80;95.80
18073;DHT22;9161;47.348;9.648;2023-07-20T17:09:43;27.50;95.90
18073;DHT22;9161;47.348;9.648;2023-07-20T17:14:51;27.60;96.00
18073;DHT22;9161;47.348;9.648;2023-07-20T17:19:57;27.70;96.50
18073;DHT22;9161;47.348;9.648;2023-07-20T17:25:03;27.20;96.20
18073;DHT22;9161;47.348;9.648;2023-07-20T17:30:16;26.90;97.30
18073;DHT22;9161;47.348;9.648;2023-07-20T17:35:29;26.90;96.80
18073;DHT22;9161;47.348;9.648;2023-07-20T17:40:38;26.70;96.50
18073;DHT22;9161;47.348;9.648;2023-07-20T17:45:51;26.50;97.60
18073;DHT22;9161;47.348;9.648;2023-07-20T17:51:18;26.40;97.60
18073;DHT22;9161;47.348;9.648;2023-07-20T17:56:31;26.30;97.10
18073;DHT22;9161;47.348;9.648;2023-07-20T18:01:39;26.30;95.30
18073;DHT22;9161;47.348;9.648;2023-07-20T18:06:49;26.10;96.30
18073;DHT22;9161;47.348;9.648;2023-07-20T18:11:57;26.00;96.20
18073;DHT22;9161;47.348;9.648;2023-07-20T18:17:03;25.70;96.70
18073;DHT22;9161;47.348;9.648;2023-07-20T18:22:32;25.40;97.00
18073;DHT22;9161;47.348;9.648;2023-07-20T18:27:41;25.00;96.20
18073;DHT22;9161;47.348;9.648;2023-07-20T18:38:24;24.50;97.70
18073;DHT22;9161;47.348;9.648;2023-07-20T18:43:44;24.30;98.60
18073;DHT22;9161;47.348;9.648;2023-07-20T18:49:00;24.20;98.90
18073;DHT22;9161;47.348;9.648;2023-07-20T18:54:27;24.10;98.80
18073;DHT22;9161;47.348;9.648;2023-07-20T18:59:40;23.70;99.90
18073;DHT22;9161;47.348;9.648;2023-07-20T19:04:45;23.30;99.90
18073;DHT22;9161;47.348;9.648;2023-07-20T19:09:59;22.90;99.90
18073;DHT22;9161;47.348;9.648;2023-07-20T19:15:07;22.80;99.90
18073;DHT22;9161;47.348;9.648;2023-07-20T19:20:23;22.80;99.90
18073;DHT22;9161;47.348;9.648;2023-07-20T19:25:32;22.40;99.90
18073;DHT22;9161;47.348;9.648;2023-07-20T19:30:42;22.30;99.90
18073;DHT22;9161;47.348;9.648;2023-07-20T19:36:13;22.00;99.90
18073;DHT22;9161;47.348;9.648;2023-07-20T19:41:20;21.80;99.90
18073;DHT22;9161;47.348;9.648;2023-07-20T19:46:34;21.70;99.90
18073;DHT22;9161;47.348;9.648;2023-07-20T19:51:57;21.60;99.90
18073;DHT22;9161;47.348;9.648;2023-07-20T19:57:11;21.60;99.90
18073;DHT22;9161;47.348;9.648;2023-07-20T20:02:25;21.60;99.90
18073;DHT22;9161;47.348;9.648;2023-07-20T20:07:38;21.60;99.90
18073;DHT22;9161;47.348;9.648;2023-07-20T20:12:57;21.50;99.90
18073;DHT22;9161;47.348;9.648;2023-07-20T20:18:02;21.40;99.90
18073;DHT22;9161;47.348;9.648;2023-07-20T20:23:17;21.20;99.90
18073;DHT22;9161;47.348;9.648;2023-07-20T20:28:24;21.10;99.90
18073;DHT22;9161;47.348;9.648;2023-07-20T20:33:42;20.90;99.90
18073;DHT22;9161;47.348;9.648;2023-07-20T20:38:48;20.80;99.90
18073;DHT22;9161;47.348;9.648;2023-07-20T20:44:19;20.70;99.90
18073;DHT22;9161;47.348;9.648;2023-07-20T20:49:31;20.70;99.90
18073;DHT22;9161;47.348;9.648;2023-07-20T20:54:37;20.60;99.90
18073;DHT22;9161;47.348;9.648;2023-07-20T20:59:48;20.50;99.90
18073;DHT22;9161;47.348;9.648;2023-07-20T21:04:52;20.50;99.90
18073;DHT22;9161;47.348;9.648;2023-07-20T21:09:55;20.50;99.90
18073;DHT22;9161;47.348;9.648;2023-07-20T21:14:59;20.60;99.90
18073;DHT22;9161;47.348;9.648;2023-07-20T21:20:09;20.60;99.90
18073;DHT22;9161;47.348;9.648;2023-07-20T21:25:11;20.60;99.90
18073;DHT22;9161;47.348;9.648;2023-07-20T21:30:15;20.60;99.90
18073;DHT22;9161;47.348;9.648;2023-07-20T21:35:17;20.40;99.90
18073;DHT22;9161;47.348;9.648;2023-07-20T21:40:19;20.50;99.90
18073;DHT22;9161;47.348;9.648;2023-07-20T21:45:23;20.50;99.90
18073;DHT22;9161;47.348;9.648;2023-07-20T21:50:29;20.60;99.90
18073;DHT22;9161;47.348;9.648;2023-07-20T21:55:32;20.70;99.90
18073;DHT22;9161;47.348;9.648;2023-07-20T22:00:36;20.70;99.90
18073;DHT22;9161;47.348;9.648;2023-07-20T22:05:41;20.60;99.90
18073;DHT22;9161;47.348;9.648;2023-07-20T22:10:47;20.70;99.90
18073;DHT22;9161;47.348;9.648;2023-07-20T22:15:55;20.70;99.90
18073;DHT22;9161;47.348;9.648;2023-07-20T22:20:58;20.60;99.90
18073;DHT22;9161;47.348;9.648;2023-07-20T22:26:03;20.70;99.90
18073;DHT22;9161;47.348;9.648;2023-07-20T22:31:06;20.60;99.90
18073;DHT22;9161;47.348;9.648;2023-07-20T22:36:08;20.30;99.90
18073;DHT22;9161;47.348;9.648;2023-07-20T22:41:14;20.10;99.90
18073;DHT22;9161;47.348;9.648;2023-07-20T22:46:18;20.00;99.90
18073;DHT22;9161;47.348;9.648;2023-07-20T22:51:20;19.90;99.90
18073;DHT22;9161;47.348;9.648;2023-07-20T22:56:24;19.80;99.90
18073;DHT22;9161;47.348;9.648;2023-07-20T23:01:32;19.80;99.90
18073;DHT22;9161;47.348;9.648;2023-07-20T23:06:37;19.70;99.90
18073;DHT22;9161;47.348;9.648;2023-07-20T23:11:39;19.70;99.90
18073;DHT22;9161;47.348;9.648;2023-07-20T23:16:42;19.50;99.90
18073;DHT22;9161;47.348;9.648;2023-07-20T23:21:44;19.40;99.90
18073;DHT22;9161;47.348;9.648;2023-07-20T23:26:47;19.50;99.90
18073;DHT22;9161;47.348;9.648;2023-07-20T23:31:50;19.70;99.90
18073;DHT22;9161;47.348;9.648;2023-07-20T23:36:52;19.50;99.90
18073;DHT22;9161;47.348;9.648;2023-07-20T23:41:54;19.60;99.90
18073;DHT22;9161;47.348;9.648;2023-07-20T23:47:02;19.90;99.90
18073;DHT22;9161;47.348;9.648;2023-07-20T23:52:07;19.80;99.90
18073;DHT22;9161;47.348;9.648;2023-07-20T23:57:09;19.60;99.90
